createdAt,value
2022-11-24T00:01:24.000Z,97390
2022-11-24T00:02:51.000Z,97393
2022-11-24T00:04:57.000Z,97394
2022-11-24T00:06:24.000Z,97399
2022-11-24T00:08:30.000Z,97395
2022-11-24T00:09:56.000Z,97399
2022-11-24T00:12:02.000Z,97395
2022-11-24T00:13:29.000Z,97401
2022-11-24T00:15:35.000Z,97399
2022-11-24T00:18:26.000Z,97404
2022-11-24T00:19:53.000Z,97404
2022-11-24T00:21:59.000Z,97400
2022-11-24T00:23:25.000Z,97401
2022-11-24T00:25:31.000Z,97403
2022-11-24T00:26:58.000Z,97401
2022-11-24T00:29:04.000Z,97407
2022-11-24T00:30:31.000Z,97410
2022-11-24T00:32:37.000Z,97405
2022-11-24T00:34:03.000Z,97405
2022-11-24T00:36:09.000Z,97404
2022-11-24T00:37:36.000Z,97404
2022-11-24T00:39:42.000Z,97408
2022-11-24T00:41:08.000Z,97410
2022-11-24T00:43:14.000Z,97414
2022-11-24T00:44:41.000Z,97414
2022-11-24T00:46:47.000Z,97420
2022-11-24T00:48:14.000Z,97422
2022-11-24T00:50:20.000Z,97427
2022-11-24T00:51:46.000Z,97430
2022-11-24T00:53:53.000Z,97432
2022-11-24T00:56:44.000Z,97436
2022-11-24T00:58:10.000Z,97441
2022-11-24T01:00:16.000Z,97442
2022-11-24T01:01:43.000Z,97445
2022-11-24T01:03:49.000Z,97447
2022-11-24T01:05:16.000Z,97446
2022-11-24T01:07:22.000Z,97446
2022-11-24T01:08:48.000Z,97449
2022-11-24T01:10:54.000Z,97449
2022-11-24T01:12:21.000Z,97452
2022-11-24T01:14:27.000Z,97455
2022-11-24T01:15:54.000Z,97453
2022-11-24T01:18:00.000Z,97458
2022-11-24T01:19:26.000Z,97455
2022-11-24T01:21:32.000Z,97459
2022-11-24T01:22:59.000Z,97460
2022-11-24T01:25:05.000Z,97462
2022-11-24T01:26:32.000Z,97466
2022-11-24T01:28:38.000Z,97469
2022-11-24T01:30:13.000Z,97468
2022-11-24T01:32:19.000Z,97471
2022-11-24T01:35:10.000Z,97470
2022-11-24T01:36:37.000Z,97469
2022-11-24T01:38:43.000Z,97471
2022-11-24T01:40:09.000Z,97469
2022-11-24T01:42:15.000Z,97474
2022-11-24T01:43:42.000Z,97471
2022-11-24T01:45:48.000Z,97470
2022-11-24T01:47:15.000Z,97473
2022-11-24T01:49:21.000Z,97471
2022-11-24T01:50:47.000Z,97472
2022-11-24T01:52:53.000Z,97479
2022-11-24T01:54:20.000Z,97475
2022-11-24T01:56:26.000Z,97477
2022-11-24T01:57:53.000Z,97481
2022-11-24T01:59:59.000Z,97475
2022-11-24T02:01:25.000Z,97475
2022-11-24T02:03:32.000Z,97475
2022-11-24T02:04:58.000Z,97475
2022-11-24T02:07:04.000Z,97477
2022-11-24T02:08:31.000Z,97475
2022-11-24T02:10:37.000Z,97476
2022-11-24T02:13:28.000Z,97474
2022-11-24T02:14:54.000Z,97477
2022-11-24T02:17:00.000Z,97485
2022-11-24T02:18:27.000Z,97480
2022-11-24T02:20:33.000Z,97487
2022-11-24T02:22:00.000Z,97485
2022-11-24T02:24:06.000Z,97492
2022-11-24T02:25:32.000Z,97491
2022-11-24T02:27:38.000Z,97497
2022-11-24T02:29:05.000Z,97503
2022-11-24T02:31:11.000Z,97506
2022-11-24T02:32:38.000Z,97505
2022-11-24T02:34:44.000Z,97508
2022-11-24T02:36:10.000Z,97509
2022-11-24T02:38:16.000Z,97509
2022-11-24T02:39:43.000Z,97513
2022-11-24T02:41:49.000Z,97514
2022-11-24T02:43:15.000Z,97516
2022-11-24T02:45:22.000Z,97520
2022-11-24T02:46:48.000Z,97519
2022-11-24T02:48:54.000Z,97518
2022-11-24T02:51:45.000Z,97516
2022-11-24T02:53:12.000Z,97507
2022-11-24T02:55:18.000Z,97507
2022-11-24T02:56:44.000Z,97510
2022-11-24T02:58:51.000Z,97509
2022-11-24T03:00:17.000Z,97505
2022-11-24T03:02:23.000Z,97510
2022-11-24T03:03:50.000Z,97507
2022-11-24T03:05:56.000Z,97511
2022-11-24T03:07:22.000Z,97517
2022-11-24T03:09:29.000Z,97518
2022-11-24T03:10:55.000Z,97521
2022-11-24T03:13:01.000Z,97519
2022-11-24T03:14:28.000Z,97520
2022-11-24T03:16:34.000Z,97517
2022-11-24T03:18:00.000Z,97516
2022-11-24T03:20:07.000Z,97513
2022-11-24T03:21:33.000Z,97514
2022-11-24T03:23:39.000Z,97516
2022-11-24T03:25:06.000Z,97521
2022-11-24T03:27:12.000Z,97523
2022-11-24T03:30:03.000Z,97525
2022-11-24T03:31:30.000Z,97525
2022-11-24T03:33:36.000Z,97524
2022-11-24T03:35:02.000Z,97524
2022-11-24T03:37:08.000Z,97524
2022-11-24T03:38:35.000Z,97526
2022-11-24T03:40:41.000Z,97530
2022-11-24T03:42:08.000Z,97530
2022-11-24T03:44:14.000Z,97529
2022-11-24T03:45:40.000Z,97529
2022-11-24T03:47:52.000Z,97531
2022-11-24T03:49:18.000Z,97534
2022-11-24T03:51:24.000Z,97536
2022-11-24T03:52:51.000Z,97541
2022-11-24T03:54:57.000Z,97540
2022-11-24T03:56:24.000Z,97540
2022-11-24T03:58:30.000Z,97544
2022-11-24T03:59:56.000Z,97541
2022-11-24T04:02:02.000Z,97550
2022-11-24T04:03:29.000Z,97545
2022-11-24T04:05:35.000Z,97550
2022-11-24T04:08:26.000Z,97559
2022-11-24T04:09:53.000Z,97558
2022-11-24T04:11:59.000Z,97553
2022-11-24T04:13:25.000Z,97549
2022-11-24T04:15:32.000Z,97553
2022-11-24T04:16:58.000Z,97550
2022-11-24T04:19:04.000Z,97552
2022-11-24T04:20:31.000Z,97553
2022-11-24T04:22:37.000Z,97553
2022-11-24T04:24:03.000Z,97557
2022-11-24T04:26:09.000Z,97557
2022-11-24T04:27:36.000Z,97564
2022-11-24T04:29:42.000Z,97568
2022-11-24T04:31:09.000Z,97567
2022-11-24T04:33:15.000Z,97578
2022-11-24T04:34:41.000Z,97581
2022-11-24T04:36:47.000Z,97580
2022-11-24T04:38:14.000Z,97582
2022-11-24T04:41:32.000Z,97593
2022-11-24T04:42:59.000Z,97596
2022-11-24T04:45:05.000Z,97597
2022-11-24T04:47:56.000Z,97594
2022-11-24T04:49:22.000Z,97592
2022-11-24T04:51:28.000Z,97595
2022-11-24T04:52:55.000Z,97593
2022-11-24T04:55:01.000Z,97590
2022-11-24T04:56:27.000Z,97589
2022-11-24T04:58:33.000Z,97597
2022-11-24T05:00:00.000Z,97601
2022-11-24T05:02:06.000Z,97606
2022-11-24T05:03:33.000Z,97612
2022-11-24T05:05:39.000Z,97608
2022-11-24T05:07:05.000Z,97605
2022-11-24T05:09:12.000Z,97616
2022-11-24T05:10:38.000Z,97617
2022-11-24T05:12:44.000Z,97617
2022-11-24T05:14:17.000Z,97620
2022-11-24T05:16:23.000Z,97622
2022-11-24T05:17:50.000Z,97623
2022-11-24T05:19:56.000Z,97628
2022-11-24T05:21:22.000Z,97631
2022-11-24T05:23:28.000Z,97635
2022-11-24T05:26:19.000Z,97623
2022-11-24T05:27:46.000Z,97623
2022-11-24T05:29:52.000Z,97625
2022-11-24T05:31:18.000Z,97620
2022-11-24T05:33:24.000Z,97627
2022-11-24T05:34:51.000Z,97630
2022-11-24T05:36:57.000Z,97629
2022-11-24T05:38:24.000Z,97631
2022-11-24T05:40:30.000Z,97633
2022-11-24T05:41:56.000Z,97638
2022-11-24T05:44:02.000Z,97642
2022-11-24T05:45:29.000Z,97644
2022-11-24T05:47:35.000Z,97646
2022-11-24T05:49:02.000Z,97652
2022-11-24T05:51:08.000Z,97659
2022-11-24T05:52:35.000Z,97663
2022-11-24T05:54:42.000Z,97668
2022-11-24T05:56:08.000Z,97668
2022-11-24T05:58:14.000Z,97664
2022-11-24T05:59:41.000Z,97669
2022-11-24T06:01:47.000Z,97670
2022-11-24T06:04:38.000Z,97669
2022-11-24T06:06:05.000Z,97672
2022-11-24T06:08:11.000Z,97674
2022-11-24T06:09:37.000Z,97673
2022-11-24T06:11:43.000Z,97679
2022-11-24T06:13:10.000Z,97681
2022-11-24T06:15:16.000Z,97683
2022-11-24T06:16:43.000Z,97685
2022-11-24T06:18:49.000Z,97692
2022-11-24T06:20:15.000Z,97699
2022-11-24T06:22:22.000Z,97699
2022-11-24T06:23:48.000Z,97698
2022-11-24T06:25:54.000Z,97695
2022-11-24T06:27:21.000Z,97695
2022-11-24T06:29:27.000Z,97698
2022-11-24T06:30:53.000Z,97697
2022-11-24T06:32:59.000Z,97706
2022-11-24T06:34:26.000Z,97709
2022-11-24T06:36:32.000Z,97704
2022-11-24T06:37:58.000Z,97699
2022-11-24T06:40:05.000Z,97699
2022-11-24T06:42:55.000Z,97697
2022-11-24T06:44:22.000Z,97704
2022-11-24T06:46:28.000Z,97697
2022-11-24T06:47:55.000Z,97697
2022-11-24T06:50:01.000Z,97701
2022-11-24T06:51:27.000Z,97700
2022-11-24T06:53:33.000Z,97704
2022-11-24T06:55:00.000Z,97707
2022-11-24T06:57:06.000Z,97711
2022-11-24T06:58:32.000Z,97711
2022-11-24T07:00:39.000Z,97713
2022-11-24T07:02:05.000Z,97714
2022-11-24T07:04:11.000Z,97717
2022-11-24T07:05:38.000Z,97722
2022-11-24T07:07:44.000Z,97723
2022-11-24T07:09:10.000Z,97721
2022-11-24T07:11:17.000Z,97725
2022-11-24T07:12:43.000Z,97725
2022-11-24T07:14:49.000Z,97723
2022-11-24T07:16:16.000Z,97726
2022-11-24T07:18:22.000Z,97732
2022-11-24T07:21:13.000Z,97732
2022-11-24T07:22:40.000Z,97726
2022-11-24T07:24:46.000Z,97727
2022-11-24T07:26:12.000Z,97727
2022-11-24T07:28:18.000Z,97727
2022-11-24T07:29:45.000Z,97730
2022-11-24T07:31:51.000Z,97732
2022-11-24T07:33:18.000Z,97732
2022-11-24T07:35:24.000Z,97734
2022-11-24T07:36:50.000Z,97740
2022-11-24T07:38:56.000Z,97743
2022-11-24T07:40:23.000Z,97743
2022-11-24T07:42:29.000Z,97743
2022-11-24T07:43:55.000Z,97746
2022-11-24T07:46:02.000Z,97743
2022-11-24T07:47:28.000Z,97745
2022-11-24T07:49:34.000Z,97742
2022-11-24T07:51:01.000Z,97744
2022-11-24T07:53:07.000Z,97748
2022-11-24T07:54:34.000Z,97747
2022-11-24T07:56:40.000Z,97749
2022-11-24T07:59:31.000Z,97753
2022-11-24T08:00:58.000Z,97755
2022-11-24T08:03:04.000Z,97755
2022-11-24T08:04:30.000Z,97760
2022-11-24T08:06:36.000Z,97760
2022-11-24T08:08:10.000Z,97763
2022-11-24T08:11:49.000Z,97767
2022-11-24T08:12:23.000Z,97772
2022-11-24T08:13:49.000Z,97765
2022-11-24T08:15:56.000Z,97771
2022-11-24T08:17:22.000Z,97772
2022-11-24T08:19:28.000Z,97773
2022-11-24T08:20:55.000Z,97772
2022-11-24T08:23:01.000Z,97773
2022-11-24T08:24:27.000Z,97777
2022-11-24T08:26:33.000Z,97775
2022-11-24T08:28:00.000Z,97774
2022-11-24T08:30:06.000Z,97783
2022-11-24T08:31:32.000Z,97779
2022-11-24T08:33:39.000Z,97781
2022-11-24T08:35:06.000Z,97781
2022-11-24T08:37:20.000Z,97784
2022-11-24T08:40:05.000Z,97782
2022-11-24T08:41:31.000Z,97783
2022-11-24T08:43:38.000Z,97785
2022-11-24T08:45:04.000Z,97789
2022-11-24T08:47:26.000Z,97794
2022-11-24T08:48:53.000Z,97793
2022-11-24T08:50:59.000Z,97790
2022-11-24T08:52:25.000Z,97795
2022-11-24T08:54:31.000Z,97799
2022-11-24T08:55:58.000Z,97801
2022-11-24T08:58:04.000Z,97800
2022-11-24T08:59:31.000Z,97798
2022-11-24T09:01:37.000Z,97797
2022-11-24T09:03:04.000Z,97803
2022-11-24T09:05:10.000Z,97807
2022-11-24T09:07:16.000Z,97808
2022-11-24T09:09:22.000Z,97814
2022-11-24T09:10:49.000Z,97812
2022-11-24T09:12:55.000Z,97817
2022-11-24T09:14:22.000Z,97819
2022-11-24T09:16:28.000Z,97818
2022-11-24T09:19:19.000Z,97827
2022-11-24T09:20:45.000Z,97828
2022-11-24T09:22:52.000Z,97835
2022-11-24T09:24:18.000Z,97835
2022-11-24T09:26:24.000Z,97835
2022-11-24T09:27:51.000Z,97841
2022-11-24T09:29:57.000Z,97849
2022-11-24T09:31:23.000Z,97849
2022-11-24T09:33:30.000Z,97846
2022-11-24T09:34:56.000Z,97841
2022-11-24T09:37:02.000Z,97842
2022-11-24T09:38:29.000Z,97843
2022-11-24T09:40:35.000Z,97844
2022-11-24T09:42:01.000Z,97847
2022-11-24T09:44:07.000Z,97849
2022-11-24T09:45:34.000Z,97848
2022-11-24T09:48:10.000Z,97854
2022-11-24T09:49:36.000Z,97850
2022-11-24T09:51:42.000Z,97851
2022-11-24T09:53:09.000Z,97850
2022-11-24T09:55:15.000Z,97848
2022-11-24T09:58:06.000Z,97848
2022-11-24T09:59:33.000Z,97850
2022-11-24T10:01:39.000Z,97856
2022-11-24T10:03:06.000Z,97863
2022-11-24T10:05:12.000Z,97859
2022-11-24T10:06:39.000Z,97857
2022-11-24T10:08:45.000Z,97858
2022-11-24T10:10:11.000Z,97857
2022-11-24T10:12:17.000Z,97861
2022-11-24T10:13:44.000Z,97864
2022-11-24T10:15:50.000Z,97864
2022-11-24T10:17:16.000Z,97869
2022-11-24T10:19:23.000Z,97875
2022-11-24T10:20:49.000Z,97874
2022-11-24T10:22:55.000Z,97874
2022-11-24T10:24:22.000Z,97874
2022-11-24T10:26:28.000Z,97880
2022-11-24T10:27:54.000Z,97878
2022-11-24T10:30:00.000Z,97880
2022-11-24T10:31:27.000Z,97878
2022-11-24T10:33:33.000Z,97876
2022-11-24T10:36:24.000Z,97874
2022-11-24T10:37:50.000Z,97877
2022-11-24T10:39:57.000Z,97875
2022-11-24T10:41:26.000Z,97879
2022-11-24T10:43:32.000Z,97878
2022-11-24T10:44:59.000Z,97878
2022-11-24T10:47:05.000Z,97881
2022-11-24T10:48:32.000Z,97879
2022-11-24T10:50:38.000Z,97879
2022-11-24T10:52:04.000Z,97882
2022-11-24T10:54:10.000Z,97890
2022-11-24T10:55:37.000Z,97888
2022-11-24T10:57:43.000Z,97887
2022-11-24T10:59:09.000Z,97890
2022-11-24T11:01:16.000Z,97896
2022-11-24T11:02:42.000Z,97896
2022-11-24T11:04:48.000Z,97899
2022-11-24T11:06:15.000Z,97900
2022-11-24T11:08:21.000Z,97904
2022-11-24T11:09:47.000Z,97905
2022-11-24T11:11:53.000Z,97902
2022-11-24T11:14:45.000Z,97909
2022-11-24T11:16:11.000Z,97913
2022-11-24T11:18:17.000Z,97905
2022-11-24T11:19:44.000Z,97906
2022-11-24T11:21:56.000Z,97905
2022-11-24T11:23:22.000Z,97907
2022-11-24T11:25:28.000Z,97904
2022-11-24T11:26:55.000Z,97909
2022-11-24T11:30:57.000Z,97909
2022-11-24T11:35:24.000Z,97911
2022-11-24T11:37:30.000Z,97920
2022-11-24T11:38:56.000Z,97915
2022-11-24T11:41:02.000Z,97917
2022-11-24T11:42:29.000Z,97921
2022-11-24T11:45:06.000Z,97930
2022-11-24T11:46:32.000Z,97926
2022-11-24T11:48:39.000Z,97925
2022-11-24T11:50:10.000Z,97924
2022-11-24T11:52:16.000Z,97927
2022-11-24T11:55:07.000Z,97924
2022-11-24T11:56:34.000Z,97928
2022-11-24T11:58:40.000Z,97931
2022-11-24T12:00:06.000Z,97938
2022-11-24T12:02:12.000Z,97935
2022-11-24T12:03:39.000Z,97934
2022-11-24T12:05:46.000Z,97936
2022-11-24T12:07:12.000Z,97938
2022-11-24T12:09:18.000Z,97939
2022-11-24T12:10:47.000Z,97946
2022-11-24T12:12:53.000Z,97946
2022-11-24T12:14:20.000Z,97947
2022-11-24T12:16:26.000Z,97949
2022-11-24T12:17:52.000Z,97951
2022-11-24T12:19:59.000Z,97954
2022-11-24T12:21:25.000Z,97956
2022-11-24T12:23:32.000Z,97959
2022-11-24T12:24:59.000Z,97966
2022-11-24T12:27:05.000Z,97965
2022-11-24T12:28:32.000Z,97963
2022-11-24T12:30:38.000Z,97961
2022-11-24T12:33:29.000Z,97961
2022-11-24T12:34:56.000Z,97964
2022-11-24T12:37:02.000Z,97965
2022-11-24T12:38:28.000Z,97963
2022-11-24T12:40:34.000Z,97965
2022-11-24T12:42:01.000Z,97969
2022-11-24T12:44:07.000Z,97972
2022-11-24T12:45:33.000Z,97975
2022-11-24T12:47:39.000Z,97970
2022-11-24T12:49:06.000Z,97968
2022-11-24T12:51:12.000Z,97967
2022-11-24T12:52:39.000Z,97965
2022-11-24T12:54:45.000Z,97960
2022-11-24T12:56:11.000Z,97962
2022-11-24T12:58:17.000Z,97962
2022-11-24T12:59:44.000Z,97960
2022-11-24T13:01:50.000Z,97960
2022-11-24T13:03:16.000Z,97959
2022-11-24T13:05:23.000Z,97965
2022-11-24T13:06:49.000Z,97967
2022-11-24T13:08:56.000Z,97970
2022-11-24T13:11:46.000Z,97979
2022-11-24T13:13:13.000Z,97982
2022-11-24T13:25:39.000Z,98010
2022-11-24T13:27:45.000Z,98012
2022-11-24T13:29:12.000Z,98015
2022-11-24T13:31:30.000Z,98019
2022-11-24T13:32:57.000Z,98023
2022-11-24T13:35:03.000Z,98025
2022-11-24T13:36:30.000Z,98021
2022-11-24T13:38:36.000Z,98023
2022-11-24T13:40:02.000Z,98022
2022-11-24T13:42:08.000Z,98025
2022-11-24T13:43:35.000Z,98029
2022-11-24T13:45:41.000Z,98031
2022-11-24T13:47:08.000Z,98032
2022-11-24T13:49:14.000Z,98032
2022-11-24T13:50:40.000Z,98031
2022-11-24T13:52:47.000Z,98034
2022-11-24T13:54:13.000Z,98034
2022-11-24T13:56:19.000Z,98036
2022-11-24T13:59:10.000Z,98033
2022-11-24T14:00:37.000Z,98035
2022-11-24T14:02:43.000Z,98031
2022-11-24T14:04:10.000Z,98032
2022-11-24T14:06:37.000Z,98030
2022-11-24T14:08:03.000Z,98040
2022-11-24T14:10:10.000Z,98037
2022-11-24T14:11:36.000Z,98037
2022-11-24T14:13:42.000Z,98038
2022-11-24T14:15:09.000Z,98036
2022-11-24T14:17:15.000Z,98044
2022-11-24T14:18:41.000Z,98042
2022-11-24T14:20:47.000Z,98042
2022-11-24T14:22:14.000Z,98045
2022-11-24T14:24:20.000Z,98042
2022-11-24T14:25:46.000Z,98045
2022-11-24T14:27:53.000Z,98041
2022-11-24T14:29:19.000Z,98042
2022-11-24T14:31:26.000Z,98043
2022-11-24T14:32:52.000Z,98045
2022-11-24T14:34:58.000Z,98041
2022-11-24T14:37:50.000Z,98042
2022-11-24T14:39:16.000Z,98046
2022-11-24T14:41:22.000Z,98052
2022-11-24T14:42:49.000Z,98052
2022-11-24T14:44:55.000Z,98052
2022-11-24T14:46:21.000Z,98052
2022-11-24T14:48:27.000Z,98053
2022-11-24T14:49:54.000Z,98052
2022-11-24T14:52:00.000Z,98055
2022-11-24T14:53:27.000Z,98056
2022-11-24T14:55:33.000Z,98054
2022-11-24T14:56:59.000Z,98058
2022-11-24T14:59:05.000Z,98061
2022-11-24T15:00:32.000Z,98063
2022-11-24T15:02:38.000Z,98066
2022-11-24T15:04:05.000Z,98063
2022-11-24T15:06:17.000Z,98069
2022-11-24T15:07:44.000Z,98064
2022-11-24T15:09:50.000Z,98062
2022-11-24T15:11:16.000Z,98060
2022-11-24T15:13:22.000Z,98061
2022-11-24T15:16:14.000Z,98064
2022-11-24T15:17:40.000Z,98070
2022-11-24T15:19:46.000Z,98068
2022-11-24T15:21:13.000Z,98072
2022-11-24T15:23:25.000Z,98074
2022-11-24T15:24:52.000Z,98073
2022-11-24T15:26:58.000Z,98075
2022-11-24T15:28:24.000Z,98078
2022-11-24T15:30:30.000Z,98081
2022-11-24T15:31:57.000Z,98082
2022-11-24T15:34:03.000Z,98084
2022-11-24T15:35:30.000Z,98080
2022-11-24T15:37:36.000Z,98083
2022-11-24T15:39:02.000Z,98083
2022-11-24T15:41:08.000Z,98083
2022-11-24T15:42:35.000Z,98091
2022-11-24T15:44:41.000Z,98091
2022-11-24T15:46:08.000Z,98093
2022-11-24T15:48:14.000Z,98098
2022-11-24T15:49:44.000Z,98097
2022-11-24T15:51:50.000Z,98102
2022-11-24T15:54:42.000Z,98110
2022-11-24T15:56:08.000Z,98109
2022-11-24T15:58:14.000Z,98114
2022-11-24T15:59:41.000Z,98111
2022-11-24T16:01:47.000Z,98117
2022-11-24T16:03:13.000Z,98120
2022-11-24T16:05:52.000Z,98120
2022-11-24T16:07:19.000Z,98120
2022-11-24T16:09:25.000Z,98126
2022-11-24T16:10:51.000Z,98124
2022-11-24T16:12:57.000Z,98123
2022-11-24T16:14:24.000Z,98124
2022-11-24T16:16:30.000Z,98128
2022-11-24T16:17:57.000Z,98137
2022-11-24T16:20:03.000Z,98133
2022-11-24T16:21:29.000Z,98137
2022-11-24T16:23:35.000Z,98140
2022-11-24T16:25:02.000Z,98136
2022-11-24T16:27:08.000Z,98143
2022-11-24T16:28:35.000Z,98142
2022-11-24T16:30:41.000Z,98140
2022-11-24T16:33:32.000Z,98147
2022-11-24T16:34:58.000Z,98146
2022-11-24T16:37:04.000Z,98145
2022-11-24T16:38:31.000Z,98147
2022-11-24T16:40:37.000Z,98148
2022-11-24T16:42:04.000Z,98151
2022-11-24T16:44:10.000Z,98151
2022-11-24T16:45:36.000Z,98150
2022-11-24T16:47:49.000Z,98149
2022-11-24T16:49:16.000Z,98153
2022-11-24T16:51:22.000Z,98153
2022-11-24T16:52:48.000Z,98153
2022-11-24T16:54:54.000Z,98154
2022-11-24T16:56:21.000Z,98149
2022-11-24T16:58:27.000Z,98148
2022-11-24T16:59:54.000Z,98148
2022-11-24T17:02:00.000Z,98146
2022-11-24T17:03:26.000Z,98148
2022-11-24T17:05:33.000Z,98148
2022-11-24T17:06:59.000Z,98152
2022-11-24T17:09:05.000Z,98153
2022-11-24T17:11:56.000Z,98157
2022-11-24T17:13:23.000Z,98159
2022-11-24T17:15:29.000Z,98164
2022-11-24T17:17:01.000Z,98163
2022-11-24T17:19:07.000Z,98167
2022-11-24T17:20:33.000Z,98168
2022-11-24T17:22:39.000Z,98173
2022-11-24T17:24:06.000Z,98174
2022-11-24T17:26:12.000Z,98171
2022-11-24T17:27:38.000Z,98172
2022-11-24T17:29:45.000Z,98172
2022-11-24T17:31:11.000Z,98175
2022-11-24T17:33:17.000Z,98171
2022-11-24T17:34:44.000Z,98171
2022-11-24T17:36:50.000Z,98173
2022-11-24T17:38:16.000Z,98173
2022-11-24T17:40:23.000Z,98171
2022-11-24T17:41:55.000Z,98171
2022-11-24T17:44:01.000Z,98169
2022-11-24T17:45:28.000Z,98174
2022-11-24T17:47:34.000Z,98180
2022-11-24T17:50:25.000Z,98185
2022-11-24T17:51:52.000Z,98190
2022-11-24T17:53:59.000Z,98193
2022-11-24T17:55:25.000Z,98194
2022-11-24T17:57:31.000Z,98195
2022-11-24T17:58:58.000Z,98198
2022-11-24T18:01:04.000Z,98195
2022-11-24T18:02:30.000Z,98200
2022-11-24T18:04:36.000Z,98206
2022-11-24T18:06:04.000Z,98204
2022-11-24T18:08:10.000Z,98208
2022-11-24T18:09:36.000Z,98209
2022-11-24T18:11:42.000Z,98207
2022-11-24T18:13:09.000Z,98208
2022-11-24T18:15:40.000Z,98210
2022-11-24T18:17:06.000Z,98209
2022-11-24T18:19:12.000Z,98213
2022-11-24T18:20:39.000Z,98212
2022-11-24T18:22:45.000Z,98215
2022-11-24T18:24:32.000Z,98213
2022-11-24T18:26:38.000Z,98214
2022-11-24T18:29:29.000Z,98213
2022-11-24T18:30:56.000Z,98216
2022-11-24T18:33:02.000Z,98213
2022-11-24T18:34:28.000Z,98222
2022-11-24T18:36:34.000Z,98217
2022-11-24T18:38:01.000Z,98220
2022-11-24T18:40:07.000Z,98219
2022-11-24T18:41:33.000Z,98222
2022-11-24T18:43:40.000Z,98222
2022-11-24T18:45:06.000Z,98224
2022-11-24T18:47:12.000Z,98223
2022-11-24T18:48:39.000Z,98219
2022-11-24T18:50:45.000Z,98218
2022-11-24T18:52:11.000Z,98214
2022-11-24T18:54:17.000Z,98211
2022-11-24T18:55:44.000Z,98208
2022-11-24T18:57:50.000Z,98215
2022-11-24T18:59:17.000Z,98215
2022-11-24T19:01:23.000Z,98218
2022-11-24T19:02:49.000Z,98217
2022-11-24T19:04:56.000Z,98220
2022-11-24T19:07:47.000Z,98222
2022-11-24T19:09:14.000Z,98226
2022-11-24T19:11:20.000Z,98224
2022-11-24T19:12:46.000Z,98223
2022-11-24T19:14:52.000Z,98222
2022-11-24T19:16:19.000Z,98221
2022-11-24T19:18:25.000Z,98217
2022-11-24T19:19:52.000Z,98221
2022-11-24T19:21:58.000Z,98219
2022-11-24T19:23:24.000Z,98222
2022-11-24T19:25:30.000Z,98219
2022-11-24T19:26:57.000Z,98220
2022-11-24T19:29:03.000Z,98220
2022-11-24T19:30:30.000Z,98220
2022-11-24T19:32:36.000Z,98220
2022-11-24T19:34:02.000Z,98225
2022-11-24T19:36:09.000Z,98231
2022-11-24T19:37:35.000Z,98230
2022-11-24T19:39:41.000Z,98231
2022-11-24T19:41:08.000Z,98237
2022-11-24T19:43:14.000Z,98241
2022-11-24T19:46:05.000Z,98247
2022-11-24T19:47:32.000Z,98247
2022-11-24T19:49:38.000Z,98246
2022-11-24T19:51:05.000Z,98242
2022-11-24T19:53:11.000Z,98244
2022-11-24T19:54:37.000Z,98243
2022-11-24T19:56:43.000Z,98240
2022-11-24T19:58:10.000Z,98248
2022-11-24T20:00:16.000Z,98251
2022-11-24T20:01:43.000Z,98243
2022-11-24T20:03:49.000Z,98248
2022-11-24T20:05:16.000Z,98247
2022-11-24T20:07:22.000Z,98247
2022-11-24T20:08:48.000Z,98245
2022-11-24T20:10:54.000Z,98241
2022-11-24T20:12:21.000Z,98238
2022-11-24T20:14:27.000Z,98246
2022-11-24T20:15:53.000Z,98245
2022-11-24T20:18:00.000Z,98246
2022-11-24T20:19:26.000Z,98246
2022-11-24T20:21:32.000Z,98241
2022-11-24T20:24:23.000Z,98240
2022-11-24T20:25:50.000Z,98240
2022-11-24T20:27:56.000Z,98244
2022-11-24T20:29:22.000Z,98243
2022-11-24T20:31:28.000Z,98244
2022-11-24T20:32:55.000Z,98242
2022-11-24T20:35:01.000Z,98245
2022-11-24T20:36:28.000Z,98245
2022-11-24T20:38:34.000Z,98248
2022-11-24T20:40:00.000Z,98251
2022-11-24T20:42:06.000Z,98245
2022-11-24T20:43:33.000Z,98245
2022-11-24T20:45:39.000Z,98242
2022-11-24T20:47:06.000Z,98243
2022-11-24T20:49:12.000Z,98241
2022-11-24T20:50:38.000Z,98242
2022-11-24T20:52:44.000Z,98237
2022-11-24T20:54:11.000Z,98237
2022-11-24T20:56:17.000Z,98235
2022-11-24T20:57:43.000Z,98234
2022-11-24T20:59:50.000Z,98236
2022-11-24T21:02:41.000Z,98233
2022-11-24T21:04:07.000Z,98239
2022-11-24T21:06:14.000Z,98240
2022-11-24T21:07:40.000Z,98242
2022-11-24T21:09:46.000Z,98244
2022-11-24T21:11:13.000Z,98242
2022-11-24T21:13:19.000Z,98237
2022-11-24T21:14:45.000Z,98239
2022-11-24T21:16:52.000Z,98239
2022-11-24T21:18:18.000Z,98245
2022-11-24T21:20:24.000Z,98249
2022-11-24T21:21:51.000Z,98246
2022-11-24T21:23:57.000Z,98241
2022-11-24T21:25:23.000Z,98241
2022-11-24T21:27:29.000Z,98243
2022-11-24T21:28:56.000Z,98245
2022-11-24T21:31:02.000Z,98246
2022-11-24T21:32:29.000Z,98248
2022-11-24T21:34:35.000Z,98251
2022-11-24T21:36:01.000Z,98250
2022-11-24T21:38:08.000Z,98249
2022-11-24T21:40:59.000Z,98247
2022-11-24T21:42:25.000Z,98249
2022-11-24T21:44:31.000Z,98247
2022-11-24T21:45:58.000Z,98245
2022-11-24T21:48:05.000Z,98246
2022-11-24T21:49:31.000Z,98248
2022-11-24T21:51:37.000Z,98245
2022-11-24T21:53:04.000Z,98251
2022-11-24T21:55:10.000Z,98250
2022-11-24T21:56:36.000Z,98244
2022-11-24T21:58:42.000Z,98247
2022-11-24T22:00:07.000Z,98242
2022-11-24T22:02:13.000Z,98246
2022-11-24T22:03:38.000Z,98245
2022-11-24T22:05:44.000Z,98242
2022-11-24T22:07:10.000Z,98244
2022-11-24T22:09:17.000Z,98245
2022-11-24T22:10:44.000Z,98243
2022-11-24T22:12:51.000Z,98241
2022-11-24T22:14:17.000Z,98244
2022-11-24T22:16:21.000Z,98246
2022-11-24T22:19:13.000Z,98245
2022-11-24T22:20:38.000Z,98244
2022-11-24T22:22:42.000Z,98241
2022-11-24T22:24:09.000Z,98241
2022-11-24T22:26:15.000Z,98244
2022-11-24T22:27:41.000Z,98247
2022-11-24T22:29:47.000Z,98248
2022-11-24T22:31:20.000Z,98251
2022-11-24T22:33:26.000Z,98245
2022-11-24T22:34:53.000Z,98243
2022-11-24T22:36:59.000Z,98245
2022-11-24T22:38:26.000Z,98246
2022-11-24T22:40:32.000Z,98250
2022-11-24T22:41:58.000Z,98248
2022-11-24T22:44:04.000Z,98247
2022-11-24T22:45:31.000Z,98249
2022-11-24T22:47:37.000Z,98245
2022-11-24T22:49:04.000Z,98244
2022-11-24T22:51:10.000Z,98240
2022-11-24T22:52:36.000Z,98240
2022-11-24T22:54:42.000Z,98239
2022-11-24T22:57:34.000Z,98244
2022-11-24T22:59:00.000Z,98246
2022-11-24T23:01:06.000Z,98244
2022-11-24T23:02:33.000Z,98244
2022-11-24T23:04:39.000Z,98241
2022-11-24T23:06:06.000Z,98235
2022-11-24T23:08:12.000Z,98241
2022-11-24T23:09:38.000Z,98239
2022-11-24T23:11:44.000Z,98241
2022-11-24T23:13:11.000Z,98240
2022-11-24T23:15:17.000Z,98235
2022-11-24T23:16:43.000Z,98237
2022-11-24T23:18:50.000Z,98234
2022-11-24T23:20:20.000Z,98233
2022-11-24T23:22:26.000Z,98237
2022-11-24T23:23:53.000Z,98238
2022-11-24T23:25:59.000Z,98240
2022-11-24T23:27:25.000Z,98242
2022-11-24T23:29:31.000Z,98241
2022-11-24T23:30:58.000Z,98240
2022-11-24T23:33:04.000Z,98239
2022-11-24T23:35:55.000Z,98241
2022-11-24T23:37:22.000Z,98240
2022-11-24T23:39:51.000Z,98246
2022-11-24T23:41:18.000Z,98244
2022-11-24T23:43:24.000Z,98241
2022-11-24T23:44:50.000Z,98243
2022-11-24T23:46:56.000Z,98241
2022-11-24T23:48:23.000Z,98245
2022-11-24T23:50:29.000Z,98245
2022-11-24T23:51:55.000Z,98244